Terminal Aerodrome Forecast
Issued by NWS

Home | Current Version | Previous Version | Text Only | Print | Product List | Glossary On
Versions: 1 2 3 4 5 6 7 8 9 10 11 12 13 14 15 16
000
FTAK31 PAJN 211700
TAFAJN
TAF
PAJN 211729Z 2118/2218 09003KT P6SM BCFG FEW030 SCT050 BKN120
     FM211900 09011KT P6SM BCFG SCT030 BKN050 WS020/06025KT
     FM212000 10013G21KT P6SM VCSH SCT025 OVC050 WS020/06030KT
     FM220500 10015G25KT P6SM -RA SCT020 BKN040 OVC060 WS020/10035KT
     FM221100 10015G26KT P6SM -SHRA SCT020 BKN040 OVC060
      WS020/12035KT=

USA.gov is the U.S. government's official web portal to all federal, state and local government web resources and services.